sensor_id;sensor_type;location;lat;lon;timestamp;P1;durP1;ratioP1;P2;durP2;ratioP2
15340;SDS011;7770;52.158;5.372;2023-05-10T00:02:28;54.80;;;32.40;;
15340;SDS011;7770;52.158;5.372;2023-05-10T00:05:14;53.50;;;31.60;;
15340;SDS011;7770;52.158;5.372;2023-05-10T00:08:00;55.30;;;33.50;;
15340;SDS011;7770;52.158;5.372;2023-05-10T00:10:46;53.70;;;32.50;;
15340;SDS011;7770;52.158;5.372;2023-05-10T00:13:32;56.60;;;34.33;;
15340;SDS011;7770;52.158;5.372;2023-05-10T00:16:18;56.83;;;33.63;;
15340;SDS011;7770;52.158;5.372;2023-05-10T00:19:05;58.50;;;34.30;;
15340;SDS011;7770;52.158;5.372;2023-05-10T00:21:51;57.03;;;34.53;;
15340;SDS011;7770;52.158;5.372;2023-05-10T00:24:37;64.40;;;36.67;;
15340;SDS011;7770;52.158;5.372;2023-05-10T00:27:23;67.17;;;37.80;;
15340;SDS011;7770;52.158;5.372;2023-05-10T00:30:09;72.50;;;39.03;;
15340;SDS011;7770;52.158;5.372;2023-05-10T00:32:55;68.23;;;39.37;;
15340;SDS011;7770;52.158;5.372;2023-05-10T00:35:41;66.63;;;40.23;;
15340;SDS011;7770;52.158;5.372;2023-05-10T00:38:27;69.37;;;39.63;;
15340;SDS011;7770;52.158;5.372;2023-05-10T00:41:13;66.50;;;39.67;;
15340;SDS011;7770;52.158;5.372;2023-05-10T00:43:59;72.33;;;41.43;;
15340;SDS011;7770;52.158;5.372;2023-05-10T00:46:46;73.03;;;44.40;;
15340;SDS011;7770;52.158;5.372;2023-05-10T00:49:33;77.50;;;44.60;;
15340;SDS011;7770;52.158;5.372;2023-05-10T00:52:21;88.37;;;46.27;;
15340;SDS011;7770;52.158;5.372;2023-05-10T00:55:09;85.97;;;47.20;;
15340;SDS011;7770;52.158;5.372;2023-05-10T00:57:57;86.87;;;48.90;;
15340;SDS011;7770;52.158;5.372;2023-05-10T01:00:43;91.97;;;51.33;;
15340;SDS011;7770;52.158;5.372;2023-05-10T01:03:32;91.33;;;50.63;;
15340;SDS011;7770;52.158;5.372;2023-05-10T01:06:19;103.77;;;54.00;;
15340;SDS011;7770;52.158;5.372;2023-05-10T01:09:05;93.63;;;51.50;;
15340;SDS011;7770;52.158;5.372;2023-05-10T01:11:51;96.00;;;53.17;;
15340;SDS011;7770;52.158;5.372;2023-05-10T01:14:39;96.07;;;50.60;;
15340;SDS011;7770;52.158;5.372;2023-05-10T01:17:25;92.30;;;51.43;;
15340;SDS011;7770;52.158;5.372;2023-05-10T01:20:11;93.57;;;52.27;;
15340;SDS011;7770;52.158;5.372;2023-05-10T01:23:12;94.87;;;52.03;;
15340;SDS011;7770;52.158;5.372;2023-05-10T01:27:05;100.90;;;52.00;;
15340;SDS011;7770;52.158;5.372;2023-05-10T01:33:27;98.47;;;52.67;;
15340;SDS011;7770;52.158;5.372;2023-05-10T01:36:45;97.27;;;51.40;;
15340;SDS011;7770;52.158;5.372;2023-05-10T01:39:50;105.23;;;53.60;;
15340;SDS011;7770;52.158;5.372;2023-05-10T01:43:22;100.10;;;51.77;;
15340;SDS011;7770;52.158;5.372;2023-05-10T01:46:15;99.83;;;53.47;;
15340;SDS011;7770;52.158;5.372;2023-05-10T01:49:09;101.93;;;53.97;;
15340;SDS011;7770;52.158;5.372;2023-05-10T01:52:05;101.07;;;52.60;;
15340;SDS011;7770;52.158;5.372;2023-05-10T01:54:59;94.73;;;52.23;;
15340;SDS011;7770;52.158;5.372;2023-05-10T01:57:50;100.20;;;51.60;;
15340;SDS011;7770;52.158;5.372;2023-05-10T02:00:55;99.00;;;51.33;;
15340;SDS011;7770;52.158;5.372;2023-05-10T02:03:43;102.90;;;51.30;;
15340;SDS011;7770;52.158;5.372;2023-05-10T02:06:30;100.47;;;51.67;;
15340;SDS011;7770;52.158;5.372;2023-05-10T02:09:17;101.07;;;49.20;;
15340;SDS011;7770;52.158;5.372;2023-05-10T02:12:05;102.20;;;49.97;;
15340;SDS011;7770;52.158;5.372;2023-05-10T02:14:53;93.93;;;50.63;;
15340;SDS011;7770;52.158;5.372;2023-05-10T02:17:40;99.63;;;51.67;;
15340;SDS011;7770;52.158;5.372;2023-05-10T02:20:28;96.70;;;50.07;;
15340;SDS011;7770;52.158;5.372;2023-05-10T02:23:17;108.90;;;51.93;;
15340;SDS011;7770;52.158;5.372;2023-05-10T02:26:04;103.40;;;51.63;;
15340;SDS011;7770;52.158;5.372;2023-05-10T02:28:51;105.37;;;51.57;;
15340;SDS011;7770;52.158;5.372;2023-05-10T02:31:40;98.97;;;51.13;;
15340;SDS011;7770;52.158;5.372;2023-05-10T02:34:28;103.87;;;52.10;;
15340;SDS011;7770;52.158;5.372;2023-05-10T02:37:16;101.00;;;50.87;;
15340;SDS011;7770;52.158;5.372;2023-05-10T02:40:05;103.53;;;50.40;;
15340;SDS011;7770;52.158;5.372;2023-05-10T02:42:54;107.23;;;50.50;;
15340;SDS011;7770;52.158;5.372;2023-05-10T02:45:41;102.83;;;50.20;;
15340;SDS011;7770;52.158;5.372;2023-05-10T02:48:29;104.87;;;51.77;;
15340;SDS011;7770;52.158;5.372;2023-05-10T02:51:15;108.50;;;51.63;;
15340;SDS011;7770;52.158;5.372;2023-05-10T02:54:09;107.00;;;50.60;;
15340;SDS011;7770;52.158;5.372;2023-05-10T02:57:00;106.77;;;50.67;;
15340;SDS011;7770;52.158;5.372;2023-05-10T02:59:49;103.37;;;49.63;;
15340;SDS011;7770;52.158;5.372;2023-05-10T03:02:35;100.20;;;50.63;;
15340;SDS011;7770;52.158;5.372;2023-05-10T03:05:21;109.40;;;51.13;;
15340;SDS011;7770;52.158;5.372;2023-05-10T03:08:08;116.53;;;50.80;;
15340;SDS011;7770;52.158;5.372;2023-05-10T03:17:14;115.77;;;49.77;;
15340;SDS011;7770;52.158;5.372;2023-05-10T03:20:09;108.40;;;48.83;;
15340;SDS011;7770;52.158;5.372;2023-05-10T03:23:04;99.97;;;47.83;;
15340;SDS011;7770;52.158;5.372;2023-05-10T03:25:58;105.30;;;48.87;;
15340;SDS011;7770;52.158;5.372;2023-05-10T03:28:45;118.27;;;50.80;;
15340;SDS011;7770;52.158;5.372;2023-05-10T03:31:33;121.60;;;50.60;;
15340;SDS011;7770;52.158;5.372;2023-05-10T03:34:23;130.80;;;52.80;;
15340;SDS011;7770;52.158;5.372;2023-05-10T03:37:09;125.60;;;52.47;;
15340;SDS011;7770;52.158;5.372;2023-05-10T03:39:55;121.57;;;51.33;;
15340;SDS011;7770;52.158;5.372;2023-05-10T03:42:41;129.87;;;53.03;;
15340;SDS011;7770;52.158;5.372;2023-05-10T03:45:27;119.43;;;52.10;;
15340;SDS011;7770;52.158;5.372;2023-05-10T03:48:13;125.63;;;50.77;;
15340;SDS011;7770;52.158;5.372;2023-05-10T03:50:59;127.00;;;53.13;;
15340;SDS011;7770;52.158;5.372;2023-05-10T03:53:46;125.37;;;53.47;;
15340;SDS011;7770;52.158;5.372;2023-05-10T03:56:32;118.27;;;52.10;;
15340;SDS011;7770;52.158;5.372;2023-05-10T03:59:17;117.33;;;52.43;;
15340;SDS011;7770;52.158;5.372;2023-05-10T04:02:03;124.60;;;54.40;;
15340;SDS011;7770;52.158;5.372;2023-05-10T04:04:50;121.73;;;55.10;;
15340;SDS011;7770;52.158;5.372;2023-05-10T04:07:36;112.10;;;52.17;;
15340;SDS011;7770;52.158;5.372;2023-05-10T04:10:22;121.17;;;54.00;;
15340;SDS011;7770;52.158;5.372;2023-05-10T04:13:08;118.63;;;53.57;;
15340;SDS011;7770;52.158;5.372;2023-05-10T04:15:54;121.20;;;53.33;;
15340;SDS011;7770;52.158;5.372;2023-05-10T04:18:40;126.27;;;55.77;;
15340;SDS011;7770;52.158;5.372;2023-05-10T04:21:26;122.83;;;54.27;;
15340;SDS011;7770;52.158;5.372;2023-05-10T04:24:12;127.17;;;54.60;;
15340;SDS011;7770;52.158;5.372;2023-05-10T04:26:58;126.33;;;53.10;;
15340;SDS011;7770;52.158;5.372;2023-05-10T04:29:44;129.63;;;55.60;;
15340;SDS011;7770;52.158;5.372;2023-05-10T04:32:30;130.10;;;55.80;;
15340;SDS011;7770;52.158;5.372;2023-05-10T04:35:16;141.33;;;54.93;;
15340;SDS011;7770;52.158;5.372;2023-05-10T04:38:02;127.27;;;51.93;;
15340;SDS011;7770;52.158;5.372;2023-05-10T04:40:48;129.07;;;54.90;;
15340;SDS011;7770;52.158;5.372;2023-05-10T04:43:34;119.20;;;54.53;;
15340;SDS011;7770;52.158;5.372;2023-05-10T04:46:21;117.73;;;53.87;;
15340;SDS011;7770;52.158;5.372;2023-05-10T04:49:07;117.63;;;53.10;;
15340;SDS011;7770;52.158;5.372;2023-05-10T04:51:53;111.23;;;52.77;;
15340;SDS011;7770;52.158;5.372;2023-05-10T04:54:39;106.27;;;50.77;;
15340;SDS011;7770;52.158;5.372;2023-05-10T04:57:25;100.47;;;51.83;;
15340;SDS011;7770;52.158;5.372;2023-05-10T05:00:11;100.40;;;51.27;;
15340;SDS011;7770;52.158;5.372;2023-05-10T05:02:58;100.73;;;52.73;;
15340;SDS011;7770;52.158;5.372;2023-05-10T05:05:44;100.63;;;51.30;;
15340;SDS011;7770;52.158;5.372;2023-05-10T05:08:30;96.87;;;49.40;;
15340;SDS011;7770;52.158;5.372;2023-05-10T05:11:16;97.33;;;49.43;;
15340;SDS011;7770;52.158;5.372;2023-05-10T05:14:03;98.73;;;49.90;;
15340;SDS011;7770;52.158;5.372;2023-05-10T05:16:49;95.03;;;49.10;;
15340;SDS011;7770;52.158;5.372;2023-05-10T05:19:35;96.80;;;49.27;;
15340;SDS011;7770;52.158;5.372;2023-05-10T05:22:21;104.63;;;51.23;;
15340;SDS011;7770;52.158;5.372;2023-05-10T05:25:12;99.30;;;51.27;;
15340;SDS011;7770;52.158;5.372;2023-05-10T05:27:58;103.87;;;51.73;;
15340;SDS011;7770;52.158;5.372;2023-05-10T05:30:44;107.60;;;52.07;;
15340;SDS011;7770;52.158;5.372;2023-05-10T05:33:30;106.00;;;51.90;;
15340;SDS011;7770;52.158;5.372;2023-05-10T05:36:17;104.23;;;53.63;;
15340;SDS011;7770;52.158;5.372;2023-05-10T05:39:03;105.97;;;51.20;;
15340;SDS011;7770;52.158;5.372;2023-05-10T05:41:49;105.50;;;52.17;;
15340;SDS011;7770;52.158;5.372;2023-05-10T05:44:35;96.67;;;51.23;;
15340;SDS011;7770;52.158;5.372;2023-05-10T05:47:21;81.07;;;47.67;;
15340;SDS011;7770;52.158;5.372;2023-05-10T05:50:07;86.17;;;47.30;;
15340;SDS011;7770;52.158;5.372;2023-05-10T05:52:53;84.40;;;48.57;;
15340;SDS011;7770;52.158;5.372;2023-05-10T05:55:40;75.00;;;45.93;;
15340;SDS011;7770;52.158;5.372;2023-05-10T05:58:36;78.63;;;48.33;;
15340;SDS011;7770;52.158;5.372;2023-05-10T06:01:22;76.17;;;45.23;;
15340;SDS011;7770;52.158;5.372;2023-05-10T06:04:08;79.27;;;46.63;;
15340;SDS011;7770;52.158;5.372;2023-05-10T06:06:54;77.97;;;46.63;;
15340;SDS011;7770;52.158;5.372;2023-05-10T06:09:40;78.53;;;47.13;;
15340;SDS011;7770;52.158;5.372;2023-05-10T06:12:26;82.17;;;48.20;;
15340;SDS011;7770;52.158;5.372;2023-05-10T06:15:12;71.07;;;41.90;;
15340;SDS011;7770;52.158;5.372;2023-05-10T06:17:58;63.77;;;38.23;;
15340;SDS011;7770;52.158;5.372;2023-05-10T06:20:44;67.57;;;37.97;;
15340;SDS011;7770;52.158;5.372;2023-05-10T06:23:30;57.20;;;36.27;;
15340;SDS011;7770;52.158;5.372;2023-05-10T06:26:16;58.30;;;35.40;;
15340;SDS011;7770;52.158;5.372;2023-05-10T06:29:02;50.10;;;33.13;;
15340;SDS011;7770;52.158;5.372;2023-05-10T06:31:48;45.67;;;30.47;;
15340;SDS011;7770;52.158;5.372;2023-05-10T06:34:34;43.43;;;30.17;;
15340;SDS011;7770;52.158;5.372;2023-05-10T06:37:20;44.87;;;29.17;;
15340;SDS011;7770;52.158;5.372;2023-05-10T06:40:06;42.13;;;27.17;;
15340;SDS011;7770;52.158;5.372;2023-05-10T06:42:53;34.40;;;25.27;;
15340;SDS011;7770;52.158;5.372;2023-05-10T06:45:39;36.23;;;23.97;;
15340;SDS011;7770;52.158;5.372;2023-05-10T06:48:26;35.20;;;24.13;;
15340;SDS011;7770;52.158;5.372;2023-05-10T06:51:12;33.50;;;23.23;;
15340;SDS011;7770;52.158;5.372;2023-05-10T06:53:58;32.20;;;22.07;;
15340;SDS011;7770;52.158;5.372;2023-05-10T06:56:44;30.97;;;21.63;;
15340;SDS011;7770;52.158;5.372;2023-05-10T06:59:30;25.17;;;19.93;;
15340;SDS011;7770;52.158;5.372;2023-05-10T07:02:16;29.30;;;20.27;;
15340;SDS011;7770;52.158;5.372;2023-05-10T07:05:02;26.57;;;19.87;;
15340;SDS011;7770;52.158;5.372;2023-05-10T07:07:48;25.53;;;19.97;;
15340;SDS011;7770;52.158;5.372;2023-05-10T07:10:34;27.67;;;19.60;;
15340;SDS011;7770;52.158;5.372;2023-05-10T07:13:21;27.80;;;19.10;;
15340;SDS011;7770;52.158;5.372;2023-05-10T07:16:06;23.03;;;18.30;;
15340;SDS011;7770;52.158;5.372;2023-05-10T07:18:53;24.10;;;17.13;;
15340;SDS011;7770;52.158;5.372;2023-05-10T07:21:39;22.53;;;17.23;;
15340;SDS011;7770;52.158;5.372;2023-05-10T07:24:27;25.27;;;17.93;;
15340;SDS011;7770;52.158;5.372;2023-05-10T07:27:14;21.53;;;17.20;;
15340;SDS011;7770;52.158;5.372;2023-05-10T07:30:00;23.83;;;17.93;;
15340;SDS011;7770;52.158;5.372;2023-05-10T07:32:46;22.80;;;17.77;;
15340;SDS011;7770;52.158;5.372;2023-05-10T07:35:32;21.37;;;17.67;;
15340;SDS011;7770;52.158;5.372;2023-05-10T07:38:18;26.30;;;19.93;;
15340;SDS011;7770;52.158;5.372;2023-05-10T07:41:04;23.33;;;19.17;;
15340;SDS011;7770;52.158;5.372;2023-05-10T07:43:50;23.23;;;18.40;;
15340;SDS011;7770;52.158;5.372;2023-05-10T07:46:36;21.60;;;17.63;;
15340;SDS011;7770;52.158;5.372;2023-05-10T07:49:22;21.00;;;17.50;;
15340;SDS011;7770;52.158;5.372;2023-05-10T07:52:11;23.77;;;17.20;;
15340;SDS011;7770;52.158;5.372;2023-05-10T07:54:57;18.93;;;15.57;;
15340;SDS011;7770;52.158;5.372;2023-05-10T07:57:43;22.10;;;17.20;;
15340;SDS011;7770;52.158;5.372;2023-05-10T08:00:29;20.00;;;16.37;;
15340;SDS011;7770;52.158;5.372;2023-05-10T08:03:15;21.27;;;16.27;;
15340;SDS011;7770;52.158;5.372;2023-05-10T08:06:01;19.33;;;16.23;;
15340;SDS011;7770;52.158;5.372;2023-05-10T08:08:47;19.77;;;16.23;;
15340;SDS011;7770;52.158;5.372;2023-05-10T08:11:35;20.73;;;16.73;;
15340;SDS011;7770;52.158;5.372;2023-05-10T08:14:21;22.53;;;17.27;;
15340;SDS011;7770;52.158;5.372;2023-05-10T08:17:07;26.87;;;18.87;;
15340;SDS011;7770;52.158;5.372;2023-05-10T08:19:53;23.80;;;19.60;;
15340;SDS011;7770;52.158;5.372;2023-05-10T08:22:39;24.27;;;19.90;;
15340;SDS011;7770;52.158;5.372;2023-05-10T08:25:25;23.07;;;19.40;;
15340;SDS011;7770;52.158;5.372;2023-05-10T08:28:11;27.03;;;20.70;;
15340;SDS011;7770;52.158;5.372;2023-05-10T08:30:57;26.33;;;19.30;;
15340;SDS011;7770;52.158;5.372;2023-05-10T08:33:43;22.97;;;18.33;;
15340;SDS011;7770;52.158;5.372;2023-05-10T08:36:29;24.93;;;19.73;;
15340;SDS011;7770;52.158;5.372;2023-05-10T08:39:17;23.73;;;19.53;;
15340;SDS011;7770;52.158;5.372;2023-05-10T08:42:03;26.27;;;20.57;;
15340;SDS011;7770;52.158;5.372;2023-05-10T08:44:50;24.20;;;19.43;;
15340;SDS011;7770;52.158;5.372;2023-05-10T08:47:38;24.00;;;19.10;;
15340;SDS011;7770;52.158;5.372;2023-05-10T08:50:24;21.77;;;19.10;;
15340;SDS011;7770;52.158;5.372;2023-05-10T08:53:12;22.83;;;19.57;;
15340;SDS011;7770;52.158;5.372;2023-05-10T08:55:58;20.57;;;18.40;;
15340;SDS011;7770;52.158;5.372;2023-05-10T08:58:47;20.77;;;18.67;;
15340;SDS011;7770;52.158;5.372;2023-05-10T09:01:35;19.30;;;16.13;;
15340;SDS011;7770;52.158;5.372;2023-05-10T09:04:22;17.87;;;15.33;;
15340;SDS011;7770;52.158;5.372;2023-05-10T09:07:08;17.30;;;15.27;;
15340;SDS011;7770;52.158;5.372;2023-05-10T09:09:55;10.67;;;9.43;;
15340;SDS011;7770;52.158;5.372;2023-05-10T09:12:43;11.73;;;9.97;;
15340;SDS011;7770;52.158;5.372;2023-05-10T09:15:30;11.90;;;10.37;;
15340;SDS011;7770;52.158;5.372;2023-05-10T09:18:16;8.97;;;8.07;;
15340;SDS011;7770;52.158;5.372;2023-05-10T09:21:02;8.40;;;7.60;;
15340;SDS011;7770;52.158;5.372;2023-05-10T09:23:48;7.53;;;6.73;;
15340;SDS011;7770;52.158;5.372;2023-05-10T09:26:35;6.67;;;6.07;;
15340;SDS011;7770;52.158;5.372;2023-05-10T09:29:44;7.43;;;5.90;;
15340;SDS011;7770;52.158;5.372;2023-05-10T09:32:39;6.77;;;5.60;;
15340;SDS011;7770;52.158;5.372;2023-05-10T09:35:28;6.60;;;5.90;;
15340;SDS011;7770;52.158;5.372;2023-05-10T09:38:16;5.60;;;5.10;;
15340;SDS011;7770;52.158;5.372;2023-05-10T09:41:02;5.83;;;5.33;;
15340;SDS011;7770;52.158;5.372;2023-05-10T09:43:49;9.33;;;6.20;;
15340;SDS011;7770;52.158;5.372;2023-05-10T09:46:40;8.23;;;7.43;;
15340;SDS011;7770;52.158;5.372;2023-05-10T09:49:26;11.40;;;9.37;;
15340;SDS011;7770;52.158;5.372;2023-05-10T09:52:13;9.30;;;8.40;;
15340;SDS011;7770;52.158;5.372;2023-05-10T09:54:59;10.47;;;9.47;;
15340;SDS011;7770;52.158;5.372;2023-05-10T09:57:45;9.93;;;9.00;;
15340;SDS011;7770;52.158;5.372;2023-05-10T10:00:36;10.97;;;9.87;;
15340;SDS011;7770;52.158;5.372;2023-05-10T10:03:27;11.43;;;10.23;;
15340;SDS011;7770;52.158;5.372;2023-05-10T10:06:18;11.13;;;10.00;;
15340;SDS011;7770;52.158;5.372;2023-05-10T10:09:05;11.03;;;9.93;;
15340;SDS011;7770;52.158;5.372;2023-05-10T10:11:52;11.03;;;9.83;;
15340;SDS011;7770;52.158;5.372;2023-05-10T10:14:39;10.70;;;9.43;;
15340;SDS011;7770;52.158;5.372;2023-05-10T10:17:26;10.60;;;9.30;;
15340;SDS011;7770;52.158;5.372;2023-05-10T10:20:13;11.00;;;9.90;;
15340;SDS011;7770;52.158;5.372;2023-05-10T10:23:00;10.67;;;9.40;;
15340;SDS011;7770;52.158;5.372;2023-05-10T10:25:47;10.97;;;9.87;;
15340;SDS011;7770;52.158;5.372;2023-05-10T10:28:51;11.00;;;9.67;;
15340;SDS011;7770;52.158;5.372;2023-05-10T10:34:58;10.70;;;9.43;;
15340;SDS011;7770;52.158;5.372;2023-05-10T10:37:45;10.50;;;9.43;;
15340;SDS011;7770;52.158;5.372;2023-05-10T10:40:33;11.57;;;10.47;;
15340;SDS011;7770;52.158;5.372;2023-05-10T10:43:23;10.53;;;9.53;;
15340;SDS011;7770;52.158;5.372;2023-05-10T10:49:09;13.43;;;9.77;;
15340;SDS011;7770;52.158;5.372;2023-05-10T10:55:20;9.90;;;9.00;;
15340;SDS011;7770;52.158;5.372;2023-05-10T10:58:08;10.20;;;9.30;;
15340;SDS011;7770;52.158;5.372;2023-05-10T11:01:08;10.80;;;9.70;;
15340;SDS011;7770;52.158;5.372;2023-05-10T11:06:49;11.47;;;9.70;;
15340;SDS011;7770;52.158;5.372;2023-05-10T11:09:39;11.27;;;9.00;;
15340;SDS011;7770;52.158;5.372;2023-05-10T11:12:25;11.37;;;10.17;;
15340;SDS011;7770;52.158;5.372;2023-05-10T11:15:11;11.63;;;9.33;;
15340;SDS011;7770;52.158;5.372;2023-05-10T11:17:57;11.33;;;10.10;;
15340;SDS011;7770;52.158;5.372;2023-05-10T11:20:44;10.60;;;9.50;;
15340;SDS011;7770;52.158;5.372;2023-05-10T11:26:25;11.93;;;8.87;;
15340;SDS011;7770;52.158;5.372;2023-05-10T11:29:16;10.77;;;8.47;;
15340;SDS011;7770;52.158;5.372;2023-05-10T11:32:02;9.17;;;8.23;;
15340;SDS011;7770;52.158;5.372;2023-05-10T11:34:53;8.10;;;7.30;;
15340;SDS011;7770;52.158;5.372;2023-05-10T11:37:40;9.07;;;7.20;;
15340;SDS011;7770;52.158;5.372;2023-05-10T11:40:28;7.93;;;7.13;;
15340;SDS011;7770;52.158;5.372;2023-05-10T11:43:14;7.63;;;6.93;;
15340;SDS011;7770;52.158;5.372;2023-05-10T11:46:01;7.23;;;6.47;;
15340;SDS011;7770;52.158;5.372;2023-05-10T11:48:57;7.10;;;6.40;;
15340;SDS011;7770;52.158;5.372;2023-05-10T11:51:52;8.43;;;6.10;;
15340;SDS011;7770;52.158;5.372;2023-05-10T11:54:44;7.50;;;6.50;;
15340;SDS011;7770;52.158;5.372;2023-05-10T11:57:36;8.37;;;6.40;;
15340;SDS011;7770;52.158;5.372;2023-05-10T12:00:23;8.07;;;6.30;;
15340;SDS011;7770;52.158;5.372;2023-05-10T12:03:09;9.17;;;6.60;;
15340;SDS011;7770;52.158;5.372;2023-05-10T12:05:56;8.00;;;7.00;;
15340;SDS011;7770;52.158;5.372;2023-05-10T12:08:46;8.37;;;7.00;;
15340;SDS011;7770;52.158;5.372;2023-05-10T12:11:38;8.70;;;7.77;;
15340;SDS011;7770;52.158;5.372;2023-05-10T12:14:25;9.07;;;8.17;;
15340;SDS011;7770;52.158;5.372;2023-05-10T12:17:11;8.97;;;8.07;;
15340;SDS011;7770;52.158;5.372;2023-05-10T12:19:59;8.63;;;7.83;;
15340;SDS011;7770;52.158;5.372;2023-05-10T12:23:08;8.27;;;7.43;;
15340;SDS011;7770;52.158;5.372;2023-05-10T12:26:01;7.40;;;6.60;;
15340;SDS011;7770;52.158;5.372;2023-05-10T12:28:52;7.37;;;6.67;;
15340;SDS011;7770;52.158;5.372;2023-05-10T12:31:55;6.80;;;5.83;;
15340;SDS011;7770;52.158;5.372;2023-05-10T12:34:44;7.17;;;6.47;;
15340;SDS011;7770;52.158;5.372;2023-05-10T12:37:33;6.53;;;5.87;;
15340;SDS011;7770;52.158;5.372;2023-05-10T12:40:24;7.40;;;5.93;;
15340;SDS011;7770;52.158;5.372;2023-05-10T12:43:10;7.53;;;5.77;;
15340;SDS011;7770;52.158;5.372;2023-05-10T12:45:56;4.37;;;3.97;;
15340;SDS011;7770;52.158;5.372;2023-05-10T12:48:42;4.33;;;3.87;;
15340;SDS011;7770;52.158;5.372;2023-05-10T12:51:30;4.83;;;3.60;;
15340;SDS011;7770;52.158;5.372;2023-05-10T12:54:16;4.20;;;3.80;;
15340;SDS011;7770;52.158;5.372;2023-05-10T12:57:02;5.73;;;3.47;;
15340;SDS011;7770;52.158;5.372;2023-05-10T12:59:48;4.50;;;4.03;;
15340;SDS011;7770;52.158;5.372;2023-05-10T13:02:34;4.40;;;4.00;;
15340;SDS011;7770;52.158;5.372;2023-05-10T13:05:20;4.30;;;3.90;;
15340;SDS011;7770;52.158;5.372;2023-05-10T13:08:06;4.47;;;4.07;;
15340;SDS011;7770;52.158;5.372;2023-05-10T13:10:52;5.93;;;4.40;;
15340;SDS011;7770;52.158;5.372;2023-05-10T13:13:38;5.30;;;4.80;;
15340;SDS011;7770;52.158;5.372;2023-05-10T13:16:24;5.30;;;4.80;;
15340;SDS011;7770;52.158;5.372;2023-05-10T13:19:10;6.20;;;5.07;;
15340;SDS011;7770;52.158;5.372;2023-05-10T13:21:56;8.60;;;7.70;;
15340;SDS011;7770;52.158;5.372;2023-05-10T13:24:43;11.30;;;9.17;;
15340;SDS011;7770;52.158;5.372;2023-05-10T13:27:29;14.00;;;10.30;;
15340;SDS011;7770;52.158;5.372;2023-05-10T13:30:15;12.07;;;10.30;;
15340;SDS011;7770;52.158;5.372;2023-05-10T13:33:01;12.47;;;10.90;;
15340;SDS011;7770;52.158;5.372;2023-05-10T13:35:47;12.83;;;11.03;;
15340;SDS011;7770;52.158;5.372;2023-05-10T13:38:33;15.80;;;11.23;;
15340;SDS011;7770;52.158;5.372;2023-05-10T13:41:19;13.83;;;10.93;;
15340;SDS011;7770;52.158;5.372;2023-05-10T13:44:06;14.83;;;11.50;;
15340;SDS011;7770;52.158;5.372;2023-05-10T13:46:52;13.87;;;11.30;;
15340;SDS011;7770;52.158;5.372;2023-05-10T13:49:38;14.80;;;12.40;;
15340;SDS011;7770;52.158;5.372;2023-05-10T13:52:24;18.80;;;12.73;;
15340;SDS011;7770;52.158;5.372;2023-05-10T13:55:12;15.70;;;12.77;;
15340;SDS011;7770;52.158;5.372;2023-05-10T13:57:58;15.77;;;12.17;;
15340;SDS011;7770;52.158;5.372;2023-05-10T14:00:44;14.47;;;12.30;;
15340;SDS011;7770;52.158;5.372;2023-05-10T14:03:30;15.70;;;12.43;;
15340;SDS011;7770;52.158;5.372;2023-05-10T14:06:17;16.27;;;12.70;;
15340;SDS011;7770;52.158;5.372;2023-05-10T14:09:03;15.77;;;11.37;;
15340;SDS011;7770;52.158;5.372;2023-05-10T14:11:49;14.23;;;11.77;;
15340;SDS011;7770;52.158;5.372;2023-05-10T14:14:35;15.27;;;11.53;;
15340;SDS011;7770;52.158;5.372;2023-05-10T14:17:21;14.00;;;11.47;;
15340;SDS011;7770;52.158;5.372;2023-05-10T14:20:07;13.93;;;12.20;;
15340;SDS011;7770;52.158;5.372;2023-05-10T14:22:54;15.37;;;11.87;;
15340;SDS011;7770;52.158;5.372;2023-05-10T14:25:40;13.10;;;11.03;;
15340;SDS011;7770;52.158;5.372;2023-05-10T14:28:26;13.20;;;11.13;;
15340;SDS011;7770;52.158;5.372;2023-05-10T14:31:12;13.83;;;11.23;;
15340;SDS011;7770;52.158;5.372;2023-05-10T14:33:59;15.17;;;12.67;;
15340;SDS011;7770;52.158;5.372;2023-05-10T14:36:45;17.50;;;12.17;;
15340;SDS011;7770;52.158;5.372;2023-05-10T14:39:31;15.40;;;11.63;;
15340;SDS011;7770;52.158;5.372;2023-05-10T14:42:18;14.63;;;12.30;;
15340;SDS011;7770;52.158;5.372;2023-05-10T14:45:04;15.80;;;12.47;;
15340;SDS011;7770;52.158;5.372;2023-05-10T14:47:51;16.00;;;13.27;;
15340;SDS011;7770;52.158;5.372;2023-05-10T14:50:36;14.93;;;12.10;;
15340;SDS011;7770;52.158;5.372;2023-05-10T14:53:23;14.97;;;12.03;;
15340;SDS011;7770;52.158;5.372;2023-05-10T14:56:09;14.27;;;12.23;;
15340;SDS011;7770;52.158;5.372;2023-05-10T14:58:55;14.90;;;11.97;;
15340;SDS011;7770;52.158;5.372;2023-05-10T15:01:41;16.13;;;12.43;;
15340;SDS011;7770;52.158;5.372;2023-05-10T15:04:28;15.13;;;12.30;;
15340;SDS011;7770;52.158;5.372;2023-05-10T15:07:14;13.27;;;11.77;;
15340;SDS011;7770;52.158;5.372;2023-05-10T15:10:01;13.90;;;12.30;;
15340;SDS011;7770;52.158;5.372;2023-05-10T15:12:49;15.27;;;13.23;;
15340;SDS011;7770;52.158;5.372;2023-05-10T15:15:35;16.20;;;12.83;;
15340;SDS011;7770;52.158;5.372;2023-05-10T15:18:21;13.73;;;12.27;;
15340;SDS011;7770;52.158;5.372;2023-05-10T15:21:07;15.67;;;12.70;;
15340;SDS011;7770;52.158;5.372;2023-05-10T15:23:54;13.33;;;11.70;;
15340;SDS011;7770;52.158;5.372;2023-05-10T15:26:40;13.70;;;12.00;;
15340;SDS011;7770;52.158;5.372;2023-05-10T15:29:26;13.07;;;11.73;;
15340;SDS011;7770;52.158;5.372;2023-05-10T15:32:12;12.77;;;11.43;;
15340;SDS011;7770;52.158;5.372;2023-05-10T15:34:58;12.70;;;11.40;;
15340;SDS011;7770;52.158;5.372;2023-05-10T15:37:45;12.63;;;11.40;;
15340;SDS011;7770;52.158;5.372;2023-05-10T15:40:33;12.20;;;10.70;;
15340;SDS011;7770;52.158;5.372;2023-05-10T15:43:18;12.77;;;11.23;;
15340;SDS011;7770;52.158;5.372;2023-05-10T15:46:04;12.37;;;10.60;;
15340;SDS011;7770;52.158;5.372;2023-05-10T15:48:51;12.37;;;11.07;;
15340;SDS011;7770;52.158;5.372;2023-05-10T15:51:37;11.70;;;10.47;;
15340;SDS011;7770;52.158;5.372;2023-05-10T15:54:23;11.43;;;10.23;;
15340;SDS011;7770;52.158;5.372;2023-05-10T15:57:09;11.50;;;9.97;;
15340;SDS011;7770;52.158;5.372;2023-05-10T15:59:55;11.53;;;10.43;;
15340;SDS011;7770;52.158;5.372;2023-05-10T16:02:41;12.67;;;11.37;;
15340;SDS011;7770;52.158;5.372;2023-05-10T16:05:27;12.17;;;10.90;;
15340;SDS011;7770;52.158;5.372;2023-05-10T16:08:16;12.33;;;10.93;;
15340;SDS011;7770;52.158;5.372;2023-05-10T16:11:02;11.47;;;10.23;;
15340;SDS011;7770;52.158;5.372;2023-05-10T16:13:48;12.87;;;10.70;;
15340;SDS011;7770;52.158;5.372;2023-05-10T16:16:34;11.17;;;10.03;;
15340;SDS011;7770;52.158;5.372;2023-05-10T16:19:20;11.83;;;10.60;;
15340;SDS011;7770;52.158;5.372;2023-05-10T16:22:06;12.37;;;11.03;;
15340;SDS011;7770;52.158;5.372;2023-05-10T16:24:53;11.67;;;10.23;;
15340;SDS011;7770;52.158;5.372;2023-05-10T16:27:39;10.60;;;9.47;;
15340;SDS011;7770;52.158;5.372;2023-05-10T16:30:25;12.20;;;9.93;;
15340;SDS011;7770;52.158;5.372;2023-05-10T16:33:13;10.80;;;9.67;;
15340;SDS011;7770;52.158;5.372;2023-05-10T16:35:59;11.97;;;9.40;;
15340;SDS011;7770;52.158;5.372;2023-05-10T16:38:45;10.60;;;8.73;;
15340;SDS011;7770;52.158;5.372;2023-05-10T16:41:32;10.33;;;8.93;;
15340;SDS011;7770;52.158;5.372;2023-05-10T16:44:18;9.47;;;7.40;;
15340;SDS011;7770;52.158;5.372;2023-05-10T16:47:04;8.70;;;7.63;;
15340;SDS011;7770;52.158;5.372;2023-05-10T16:49:50;9.00;;;7.73;;
15340;SDS011;7770;52.158;5.372;2023-05-10T16:52:36;7.90;;;7.10;;
15340;SDS011;7770;52.158;5.372;2023-05-10T16:55:22;7.83;;;7.03;;
15340;SDS011;7770;52.158;5.372;2023-05-10T16:58:08;7.03;;;6.33;;
15340;SDS011;7770;52.158;5.372;2023-05-10T17:00:55;6.20;;;5.60;;
15340;SDS011;7770;52.158;5.372;2023-05-10T17:03:41;7.30;;;6.47;;
15340;SDS011;7770;52.158;5.372;2023-05-10T17:06:27;7.37;;;6.67;;